createdAt,value
2022-09-14T00:01:36.466Z,99648.72
2022-09-14T00:04:08.676Z,99646.00
2022-09-14T00:06:37.415Z,99636.72
2022-09-14T00:09:07.718Z,99638.59
2022-09-14T00:11:37.678Z,99636.59
2022-09-14T00:14:08.781Z,99635.91
2022-09-14T00:16:41.704Z,99620.22
2022-09-14T00:19:17.593Z,99633.03
2022-09-14T00:21:46.347Z,99616.66
2022-09-14T00:24:14.833Z,99617.22
2022-09-14T00:26:43.429Z,99615.53
2022-09-14T00:29:13.644Z,99610.94
2022-09-14T00:31:42.539Z,99612.00
2022-09-14T00:34:14.614Z,99615.34
2022-09-14T00:36:46.521Z,99607.81
2022-09-14T00:39:16.314Z,99606.09
2022-09-14T00:41:48.612Z,99597.88
2022-09-14T00:44:55.193Z,99602.41
2022-09-14T00:47:26.146Z,99590.47
2022-09-14T00:49:55.402Z,99591.63
2022-09-14T00:52:27.177Z,99585.25
2022-09-14T00:54:59.015Z,99588.47
2022-09-14T00:57:30.574Z,99576.84
2022-09-14T00:59:59.703Z,99573.28
2022-09-14T01:02:30.153Z,99584.38
2022-09-14T01:04:59.116Z,99573.28
2022-09-14T01:07:43.285Z,99565.56
2022-09-14T01:10:27.853Z,99569.94
2022-09-14T01:13:09.822Z,99570.28
2022-09-14T01:15:48.243Z,99571.28
2022-09-14T01:18:24.323Z,99563.88
2022-09-14T01:20:58.338Z,99560.00
2022-09-14T01:23:34.957Z,99550.41
2022-09-14T01:26:21.287Z,99555.28
2022-09-14T01:28:56.024Z,99546.34
2022-09-14T01:31:30.675Z,99550.06
2022-09-14T01:34:07.042Z,99541.50
2022-09-14T01:36:38.223Z,99542.03
2022-09-14T01:39:08.137Z,99531.38
2022-09-14T01:41:38.504Z,99535.91
2022-09-14T01:44:13.770Z,99524.16
2022-09-14T01:46:47.603Z,99519.94
2022-09-14T01:49:20.639Z,99517.09
2022-09-14T01:51:51.695Z,99521.13
2022-09-14T01:54:23.641Z,99511.84
2022-09-14T01:56:57.275Z,99504.78
2022-09-14T01:59:32.002Z,99495.72
2022-09-14T02:02:06.814Z,99498.28
2022-09-14T02:04:40.619Z,99494.44
2022-09-14T02:07:09.609Z,99494.91
2022-09-14T02:09:39.121Z,99489.16
2022-09-14T02:12:08.554Z,99481.13
2022-09-14T02:14:38.590Z,99486.50
2022-09-14T02:17:08.462Z,99475.56
2022-09-14T02:19:42.012Z,99476.25
2022-09-14T02:22:10.702Z,99476.78
2022-09-14T02:24:39.312Z,99477.56
2022-09-14T02:27:08.741Z,99470.72
2022-09-14T02:29:39.101Z,99470.19
2022-09-14T02:32:20.683Z,99453.56
2022-09-14T02:34:59.466Z,99449.47
2022-09-14T02:37:38.896Z,99449.00
2022-09-14T02:40:14.711Z,99456.41
2022-09-14T02:42:54.395Z,99460.59
2022-09-14T02:45:31.810Z,99453.88
2022-09-14T02:48:08.786Z,99446.16
2022-09-14T02:50:44.438Z,99436.06
2022-09-14T02:53:19.314Z,99433.16
2022-09-14T02:55:52.758Z,99431.03
2022-09-14T02:58:21.974Z,99434.38
2022-09-14T03:00:52.853Z,99437.06
2022-09-14T03:03:22.479Z,99429.28
2022-09-14T03:05:51.123Z,99429.09
2022-09-14T03:08:19.965Z,99426.25
2022-09-14T03:10:49.124Z,99425.88
2022-09-14T03:13:17.945Z,99420.13
2022-09-14T03:15:47.090Z,99422.88
2022-09-14T03:18:17.540Z,99414.44
2022-09-14T03:20:46.377Z,99422.53
2022-09-14T03:23:15.470Z,99417.50
2022-09-14T03:25:45.516Z,99418.69
2022-09-14T03:28:14.479Z,99415.16
2022-09-14T03:30:43.459Z,99407.53
2022-09-14T03:33:12.398Z,99407.69
2022-09-14T03:35:42.743Z,99406.00
2022-09-14T03:38:11.522Z,99403.97
2022-09-14T03:40:40.840Z,99401.63
2022-09-14T03:43:09.816Z,99402.16
2022-09-14T03:45:38.817Z,99398.56
2022-09-14T03:48:07.590Z,99393.72
2022-09-14T03:50:36.241Z,99389.78
2022-09-14T03:53:06.464Z,99399.88
2022-09-14T03:55:35.488Z,99390.09
2022-09-14T03:58:04.269Z,99392.78
2022-09-14T04:00:32.961Z,99378.09
2022-09-14T04:03:02.255Z,99377.50
2022-09-14T04:05:31.065Z,99380.69
2022-09-14T04:07:59.919Z,99373.28
2022-09-14T04:10:30.185Z,99375.00
2022-09-14T04:13:02.124Z,99369.63
2022-09-14T04:15:31.865Z,99370.97
2022-09-14T04:18:00.539Z,99364.00
2022-09-14T04:20:29.460Z,99368.00
2022-09-14T04:22:58.725Z,99365.66
2022-09-14T04:25:27.482Z,99358.34
2022-09-14T04:28:19.139Z,99364.41
2022-09-14T04:30:46.725Z,99358.41
2022-09-14T04:33:15.338Z,99356.53
2022-09-14T04:35:45.022Z,99363.13
2022-09-14T04:38:13.686Z,99361.13
2022-09-14T04:40:43.223Z,99348.91
2022-09-14T04:43:13.271Z,99357.19
2022-09-14T04:45:42.218Z,99349.81
2022-09-14T04:48:10.931Z,99352.34
2022-09-14T04:50:39.618Z,99349.28
2022-09-14T04:53:08.237Z,99343.94
2022-09-14T04:55:37.187Z,99343.34
2022-09-14T04:58:06.345Z,99345.91
2022-09-14T05:00:37.829Z,99350.28
2022-09-14T05:03:06.916Z,99349.88
2022-09-14T05:05:41.899Z,99357.25
2022-09-14T05:08:13.019Z,99355.16
2022-09-14T05:10:41.609Z,99351.22
2022-09-14T05:13:10.418Z,99357.31
2022-09-14T05:15:40.548Z,99356.31
2022-09-14T05:18:09.245Z,99352.41
2022-09-14T05:20:39.185Z,99347.31
2022-09-14T05:23:08.430Z,99347.25
2022-09-14T05:25:37.166Z,99346.53
2022-09-14T05:28:06.149Z,99336.00
2022-09-14T05:30:34.845Z,99335.75
2022-09-14T05:33:05.155Z,99337.47
2022-09-14T05:35:33.907Z,99339.94
2022-09-14T05:38:02.650Z,99333.63
2022-09-14T05:40:31.513Z,99333.00
2022-09-14T05:43:00.138Z,99331.81
2022-09-14T05:45:28.787Z,99330.66
2022-09-14T05:47:57.618Z,99325.56
2022-09-14T05:50:27.698Z,99322.84
2022-09-14T05:52:56.969Z,99319.09
2022-09-14T05:55:25.752Z,99315.44
2022-09-14T05:57:54.594Z,99316.56
2022-09-14T06:00:23.304Z,99322.44
2022-09-14T06:02:53.902Z,99315.06
2022-09-14T06:05:25.514Z,99309.13
2022-09-14T06:07:56.427Z,99307.22
2022-09-14T06:10:25.236Z,99303.66
2022-09-14T06:12:55.609Z,99303.03
2022-09-14T06:15:24.900Z,99297.66
2022-09-14T06:17:53.580Z,99297.34
2022-09-14T06:20:22.260Z,99300.44
2022-09-14T06:22:51.190Z,99291.06
2022-09-14T06:25:21.479Z,99303.69
2022-09-14T06:27:50.123Z,99295.13
2022-09-14T06:30:18.806Z,99291.09
2022-09-14T06:32:47.569Z,99287.22
2022-09-14T06:35:16.447Z,99290.69
2022-09-14T06:37:45.123Z,99289.97
2022-09-14T06:40:13.861Z,99287.16
2022-09-14T06:42:44.099Z,99287.56
2022-09-14T06:45:12.780Z,99293.84
2022-09-14T06:47:41.288Z,99292.56
2022-09-14T06:50:10.482Z,99292.09
2022-09-14T06:52:40.359Z,99292.69
2022-09-14T06:55:10.024Z,99298.34
2022-09-14T06:57:42.850Z,99297.69
2022-09-14T07:00:14.821Z,99291.53
2022-09-14T07:02:43.748Z,99293.78
2022-09-14T07:05:13.099Z,99291.13
2022-09-14T07:07:41.778Z,99284.47
2022-09-14T07:10:12.019Z,99290.44
2022-09-14T07:12:40.793Z,99282.72
2022-09-14T07:15:10.638Z,99277.28
2022-09-14T07:17:40.822Z,99275.75
2022-09-14T07:20:11.497Z,99269.19
2022-09-14T07:22:40.310Z,99272.44
2022-09-14T07:25:10.439Z,99271.03
2022-09-14T07:27:40.136Z,99264.06
2022-09-14T07:30:11.507Z,99266.34
2022-09-14T07:32:41.809Z,99276.63
2022-09-14T07:35:11.816Z,99263.06
2022-09-14T07:37:40.696Z,99269.09
2022-09-14T07:40:11.930Z,99261.75
2022-09-14T07:42:40.681Z,99271.34
2022-09-14T07:45:10.341Z,99264.56
2022-09-14T07:47:40.560Z,99264.16
2022-09-14T07:50:11.458Z,99261.38
2022-09-14T07:52:40.993Z,99258.66
2022-09-14T07:55:12.680Z,99257.34
2022-09-14T07:57:55.661Z,99258.25
2022-09-14T08:00:25.931Z,99265.34
2022-09-14T08:02:58.590Z,99260.44
2022-09-14T08:05:27.883Z,99268.81
2022-09-14T08:07:56.601Z,99262.41
2022-09-14T08:10:26.278Z,99258.19
2022-09-14T08:12:56.085Z,99250.09
2022-09-14T08:15:28.399Z,99256.59
2022-09-14T08:17:58.839Z,99258.34
2022-09-14T08:20:27.470Z,99244.97
2022-09-14T08:22:56.120Z,99246.06
2022-09-14T08:25:24.820Z,99243.81
2022-09-14T08:27:53.300Z,99247.66
2022-09-14T08:30:21.821Z,99245.13
2022-09-14T08:32:50.409Z,99238.06
2022-09-14T08:35:35.436Z,99231.22
2022-09-14T08:38:08.989Z,99236.97
2022-09-14T08:40:45.121Z,99227.88
2022-09-14T08:43:15.878Z,99232.28
2022-09-14T08:45:45.537Z,99233.59
2022-09-14T08:48:24.538Z,99223.66
2022-09-14T08:50:55.177Z,99218.38
2022-09-14T08:53:25.959Z,99219.38
2022-09-14T08:56:00.598Z,99218.75
2022-09-14T08:58:45.052Z,99220.84
2022-09-14T09:01:23.558Z,99219.19
2022-09-14T09:04:10.237Z,99216.25
2022-09-14T09:06:50.428Z,99205.19
2022-09-14T09:09:26.261Z,99203.31
2022-09-14T09:11:57.082Z,99204.09
2022-09-14T09:14:31.308Z,99192.25
2022-09-14T09:17:03.223Z,99193.03
2022-09-14T09:19:38.380Z,99194.44
2022-09-14T09:22:15.838Z,99193.72
2022-09-14T09:25:23.828Z,99202.97
2022-09-14T09:27:55.550Z,99194.09
2022-09-14T09:30:24.386Z,99199.84
2022-09-14T09:32:53.673Z,99198.19
2022-09-14T09:35:45.315Z,99204.84
2022-09-14T09:38:25.183Z,99208.59
2022-09-14T09:40:57.099Z,99205.78
2022-09-14T09:43:47.862Z,99208.66
2022-09-14T09:46:14.981Z,99208.66
2022-09-14T09:48:46.629Z,99215.72
2022-09-14T09:51:20.877Z,99214.53
2022-09-14T09:53:56.495Z,99217.59
2022-09-14T09:56:27.214Z,99216.38
2022-09-14T09:58:56.577Z,99220.13
2022-09-14T10:01:30.227Z,99219.25
2022-09-14T10:04:17.806Z,99221.59
2022-09-14T10:06:48.610Z,99217.88
2022-09-14T10:09:21.093Z,99226.41
2022-09-14T10:11:58.606Z,99219.72
2022-09-14T10:14:31.561Z,99220.81
2022-09-14T10:17:08.516Z,99224.38
2022-09-14T10:19:38.119Z,99217.69
2022-09-14T10:22:26.878Z,99219.25
2022-09-14T10:25:02.153Z,99227.94
2022-09-14T10:27:48.743Z,99225.81
2022-09-14T10:30:19.965Z,99226.47
2022-09-14T10:33:02.369Z,99229.34
2022-09-14T10:35:42.347Z,99239.72
2022-09-14T10:38:32.529Z,99245.72
2022-09-14T10:41:14.957Z,99245.09
2022-09-14T10:44:05.600Z,99247.81
2022-09-14T10:46:44.554Z,99245.50
2022-09-14T10:49:32.197Z,99241.94
2022-09-14T10:52:17.350Z,99239.06
2022-09-14T10:55:09.467Z,99231.56
2022-09-14T10:57:50.471Z,99227.97
2022-09-14T11:00:20.748Z,99224.94
2022-09-14T11:03:09.459Z,99220.81
2022-09-14T11:05:41.608Z,99227.09
2022-09-14T11:08:24.527Z,99229.22
2022-09-14T11:11:10.693Z,99222.78
2022-09-14T11:14:04.327Z,99227.59
2022-09-14T11:17:01.989Z,99227.59
2022-09-14T11:19:40.003Z,99235.97
2022-09-14T11:22:22.430Z,99219.66
2022-09-14T11:24:58.023Z,99226.50
2022-09-14T11:27:31.769Z,99227.13
2022-09-14T11:30:06.074Z,99223.78
2022-09-14T11:32:40.647Z,99224.38
2022-09-14T11:35:17.750Z,99219.75
2022-09-14T11:37:50.928Z,99216.72
2022-09-14T11:40:25.092Z,99214.81
2022-09-14T11:43:01.409Z,99211.06
2022-09-14T11:45:37.030Z,99213.00
2022-09-14T11:48:41.402Z,99213.38
2022-09-14T11:51:08.449Z,99200.69
2022-09-14T11:53:38.049Z,99202.19
2022-09-14T11:56:07.412Z,99199.28
2022-09-14T11:58:36.669Z,99189.66
2022-09-14T12:01:28.467Z,99188.56
2022-09-14T12:04:18.376Z,99189.41
2022-09-14T12:06:50.708Z,99181.91
2022-09-14T12:09:42.499Z,99189.88
2022-09-14T12:12:35.313Z,99186.78
2022-09-14T12:15:05.877Z,99198.00
2022-09-14T12:17:41.021Z,99191.72
2022-09-14T12:20:33.161Z,99187.94
2022-09-14T12:23:23.922Z,99189.19
2022-09-14T12:26:39.179Z,99180.03
2022-09-14T12:29:27.920Z,99189.66
2022-09-14T12:32:07.308Z,99192.81
2022-09-14T12:34:37.421Z,99186.31
2022-09-14T12:37:31.820Z,99191.72
2022-09-14T12:40:36.662Z,99185.94
2022-09-14T12:43:44.608Z,99192.59
2022-09-14T12:46:33.306Z,99189.72
2022-09-14T12:49:03.670Z,99194.06
2022-09-14T12:51:45.249Z,99194.72
2022-09-14T12:54:29.127Z,99190.94
2022-09-14T12:57:10.389Z,99189.66
2022-09-14T12:59:46.647Z,99182.59
2022-09-14T13:02:44.666Z,99178.63
2022-09-14T13:05:17.371Z,99182.56
2022-09-14T13:07:48.388Z,99184.47
2022-09-14T13:10:22.112Z,99179.66
2022-09-14T13:12:52.308Z,99181.75
2022-09-14T13:15:24.607Z,99180.09
2022-09-14T13:18:08.091Z,99178.41
2022-09-14T13:20:37.369Z,99184.22
2022-09-14T13:23:21.302Z,99177.31
2022-09-14T13:25:50.938Z,99172.97
2022-09-14T13:28:21.520Z,99170.91
2022-09-14T13:30:56.645Z,99171.53
2022-09-14T13:33:25.761Z,99182.56
2022-09-14T13:35:56.657Z,99174.03
2022-09-14T13:38:30.596Z,99176.31
2022-09-14T13:41:08.337Z,99180.88
2022-09-14T13:43:37.224Z,99172.97
2022-09-14T13:46:08.266Z,99176.31
2022-09-14T13:48:40.744Z,99174.88
2022-09-14T13:51:10.562Z,99175.53
2022-09-14T13:53:42.990Z,99179.47
2022-09-14T13:56:20.037Z,99165.94
2022-09-14T13:58:50.525Z,99165.50
2022-09-14T14:01:28.210Z,99164.25
2022-09-14T14:03:58.564Z,99160.31
2022-09-14T14:06:29.927Z,99158.50
2022-09-14T14:09:07.230Z,99164.31
2022-09-14T14:11:39.373Z,99158.09
2022-09-14T14:14:13.773Z,99156.41
2022-09-14T14:16:42.833Z,99151.81
2022-09-14T14:19:29.997Z,99155.38
2022-09-14T14:22:20.872Z,99152.84
2022-09-14T14:27:45.200Z,99141.38
2022-09-14T14:30:17.286Z,99142.88
2022-09-14T14:32:51.181Z,99134.50
2022-09-14T14:35:22.768Z,99126.59
2022-09-14T14:37:51.888Z,99127.63
2022-09-14T14:40:22.230Z,99140.97
2022-09-14T14:42:51.966Z,99129.50
2022-09-14T14:45:22.884Z,99127.19
2022-09-14T14:47:51.876Z,99127.22
2022-09-14T14:50:23.479Z,99133.03
2022-09-14T14:52:52.975Z,99141.41
2022-09-14T14:55:24.643Z,99142.41
2022-09-14T14:57:53.532Z,99130.94
2022-09-14T15:00:25.857Z,99135.13
2022-09-14T15:02:54.632Z,99130.94
2022-09-14T15:05:24.155Z,99127.22
2022-09-14T15:07:55.293Z,99133.88
2022-09-14T15:10:27.766Z,99128.66
2022-09-14T15:12:56.768Z,99144.50
2022-09-14T15:15:27.844Z,99139.72
2022-09-14T15:17:56.706Z,99144.72
2022-09-14T15:20:25.606Z,99139.09
2022-09-14T15:22:54.587Z,99137.22
2022-09-14T15:25:27.566Z,99138.69
2022-09-14T15:27:56.324Z,99127.63
2022-09-14T15:30:24.914Z,99127.19
2022-09-14T15:32:53.594Z,99118.22
2022-09-14T15:35:22.196Z,99125.91
2022-09-14T15:37:51.131Z,99126.72
2022-09-14T15:40:20.036Z,99128.47
2022-09-14T15:42:50.596Z,99128.03
2022-09-14T15:45:19.705Z,99130.75
2022-09-14T15:47:48.405Z,99119.25
2022-09-14T15:50:17.267Z,99126.75
2022-09-14T15:52:46.146Z,99124.22
2022-09-14T15:55:14.744Z,99119.63
2022-09-14T15:57:43.486Z,99116.72
2022-09-14T16:00:15.845Z,99118.19
2022-09-14T16:02:50.746Z,99121.50
2022-09-14T16:05:19.705Z,99121.28
2022-09-14T16:07:48.326Z,99119.41
2022-09-14T16:10:17.165Z,99120.44
2022-09-14T16:12:45.885Z,99118.78
2022-09-14T16:15:16.007Z,99110.44
2022-09-14T16:17:44.666Z,99110.22
2022-09-14T16:20:14.107Z,99105.84
2022-09-14T16:22:42.745Z,99110.66
2022-09-14T16:25:11.628Z,99112.09
2022-09-14T16:27:40.828Z,99105.63
2022-09-14T16:30:10.865Z,99113.53
2022-09-14T16:32:41.309Z,99108.28
2022-09-14T16:35:10.705Z,99106.88
2022-09-14T16:37:39.389Z,99107.94
2022-09-14T16:40:09.662Z,99105.38
2022-09-14T16:42:38.266Z,99100.97
2022-09-14T16:45:08.582Z,99100.34
2022-09-14T16:47:38.055Z,99098.66
2022-09-14T16:50:08.565Z,99099.94
2022-09-14T16:52:37.076Z,99085.34
2022-09-14T16:55:06.597Z,99088.28
2022-09-14T16:57:35.170Z,99084.50
2022-09-14T17:00:04.261Z,99085.75
2022-09-14T17:02:33.212Z,99092.00
2022-09-14T17:05:02.237Z,99096.81
2022-09-14T17:07:32.157Z,99103.69
2022-09-14T17:10:00.888Z,99099.88
2022-09-14T17:12:29.405Z,99094.88
2022-09-14T17:14:58.045Z,99095.91
2022-09-14T17:17:26.692Z,99092.78
2022-09-14T17:19:55.246Z,99093.22
2022-09-14T17:22:23.735Z,99093.66
2022-09-14T17:24:53.901Z,99082.78
2022-09-14T17:27:22.578Z,99088.22
2022-09-14T17:29:51.200Z,99092.38
2022-09-14T17:32:20.019Z,99079.88
2022-09-14T17:34:48.659Z,99083.03
2022-09-14T17:37:17.226Z,99080.13
2022-09-14T17:39:45.843Z,99079.88
2022-09-14T17:42:16.101Z,99077.75
2022-09-14T17:44:44.919Z,99076.63
2022-09-14T17:47:13.690Z,99066.03
2022-09-14T17:49:42.478Z,99069.34
2022-09-14T17:52:12.298Z,99065.59
2022-09-14T17:54:40.859Z,99063.06
2022-09-14T17:57:09.618Z,99065.28
2022-09-14T17:59:39.679Z,99064.44
2022-09-14T18:02:08.381Z,99057.25
2022-09-14T18:04:37.218Z,99058.31
2022-09-14T18:07:06.819Z,99059.78
2022-09-14T18:09:36.039Z,99061.44
2022-09-14T18:12:05.281Z,99071.25
2022-09-14T18:14:33.983Z,99053.13
2022-09-14T18:17:04.159Z,99066.47
2022-09-14T18:19:32.979Z,99060.00
2022-09-14T18:22:01.543Z,99051.94
2022-09-14T18:24:30.201Z,99062.34
2022-09-14T18:26:58.902Z,99062.72
2022-09-14T18:29:29.998Z,99059.63
2022-09-14T18:31:58.809Z,99061.25
2022-09-14T18:34:29.320Z,99062.56
2022-09-14T18:36:58.119Z,99060.88
2022-09-14T18:39:26.790Z,99063.16
2022-09-14T18:41:56.601Z,99059.88
2022-09-14T18:44:26.378Z,99060.22
2022-09-14T18:46:55.290Z,99057.50
2022-09-14T18:49:23.951Z,99059.41
2022-09-14T18:51:53.959Z,99051.09
2022-09-14T18:54:27.464Z,99046.50
2022-09-14T18:56:56.588Z,99046.53
2022-09-14T18:59:25.187Z,99051.53
2022-09-14T19:01:54.026Z,99040.91
2022-09-14T19:04:22.759Z,99041.09
2022-09-14T19:06:51.807Z,99037.34
2022-09-14T19:09:22.125Z,99038.19
2022-09-14T19:11:50.882Z,99031.91
2022-09-14T19:14:20.842Z,99036.91
2022-09-14T19:16:50.705Z,99035.28
2022-09-14T19:19:21.427Z,99037.75
2022-09-14T19:21:50.205Z,99034.38
2022-09-14T19:24:19.108Z,99040.22
2022-09-14T19:26:51.317Z,99024.63
2022-09-14T19:29:23.238Z,99028.44
2022-09-14T19:31:52.841Z,99030.19
2022-09-14T19:34:22.759Z,99025.00
2022-09-14T19:36:53.926Z,99030.88
2022-09-14T19:39:23.086Z,99025.28
2022-09-14T19:41:53.723Z,99034.28
2022-09-14T19:44:23.790Z,99032.47
2022-09-14T19:46:52.509Z,99029.88
2022-09-14T19:49:23.928Z,99036.50
2022-09-14T19:51:53.397Z,99030.59
2022-09-14T19:54:22.299Z,99038.44
2022-09-14T19:56:52.458Z,99038.50
2022-09-14T19:59:21.114Z,99033.91
2022-09-14T20:01:51.268Z,99033.19
2022-09-14T20:04:20.647Z,99039.34
2022-09-14T20:06:49.349Z,99031.19
2022-09-14T20:09:20.298Z,99035.72
2022-09-14T20:11:50.428Z,99035.78
2022-09-14T20:14:22.358Z,99031.06
2022-09-14T20:16:52.909Z,99034.53
2022-09-14T20:19:23.087Z,99029.66
2022-09-14T20:21:53.327Z,99031.03
2022-09-14T20:24:26.088Z,99030.88
2022-09-14T20:26:57.323Z,99034.72
2022-09-14T20:29:30.900Z,99034.31
2022-09-14T20:32:00.397Z,99029.44
2022-09-14T20:34:29.518Z,99026.97
2022-09-14T20:37:00.405Z,99025.91
2022-09-14T20:39:30.023Z,99036.06
2022-09-14T20:41:58.703Z,99026.41
2022-09-14T20:44:28.799Z,99028.34
2022-09-14T20:46:57.638Z,99028.59
2022-09-14T20:49:26.916Z,99028.91
2022-09-14T20:51:57.502Z,99028.47
2022-09-14T20:54:26.423Z,99029.75
2022-09-14T20:56:55.114Z,99033.19
2022-09-14T20:59:23.899Z,99042.03
2022-09-14T21:01:54.294Z,99045.84
2022-09-14T21:04:26.401Z,99029.25
2022-09-14T21:06:56.230Z,99028.59
2022-09-14T21:09:26.515Z,99030.72
2022-09-14T21:11:55.700Z,99032.44
2022-09-14T21:14:24.725Z,99021.84
2022-09-14T21:16:56.984Z,99022.03
2022-09-14T21:19:28.420Z,99021.84
2022-09-14T21:21:57.206Z,99025.25
2022-09-14T21:24:26.083Z,99023.56
2022-09-14T21:26:54.898Z,99018.56
2022-09-14T21:29:24.808Z,99027.13
2022-09-14T21:31:55.019Z,99026.06
2022-09-14T21:34:23.878Z,99020.03
2022-09-14T21:36:53.637Z,99018.78
2022-09-14T21:39:24.457Z,99021.38
2022-09-14T21:41:58.465Z,99017.81
2022-09-14T21:44:31.377Z,99017.63
2022-09-14T21:47:02.203Z,99010.75
2022-09-14T21:49:30.998Z,99012.28
2022-09-14T21:51:59.681Z,99021.28
2022-09-14T21:54:28.399Z,99013.19
2022-09-14T21:56:57.265Z,99015.78
2022-09-14T21:59:26.085Z,99004.31
2022-09-14T22:01:54.907Z,99014.03
2022-09-14T22:04:27.077Z,99014.28
2022-09-14T22:06:57.366Z,99010.19
2022-09-14T22:09:28.498Z,99011.81
2022-09-14T22:11:57.981Z,99016.94
2022-09-14T22:14:28.450Z,99003.22
2022-09-14T22:16:57.351Z,99008.47
2022-09-14T22:19:28.515Z,99006.28
2022-09-14T22:21:57.349Z,98999.72
2022-09-14T22:24:28.210Z,99001.91
2022-09-14T22:26:57.573Z,99006.81
2022-09-14T22:29:26.388Z,99000.88
2022-09-14T22:31:55.483Z,99006.75
2022-09-14T22:34:24.687Z,99004.94
2022-09-14T22:36:54.726Z,99004.94
2022-09-14T22:39:23.440Z,99003.47
2022-09-14T22:41:52.195Z,99005.47
2022-09-14T22:44:20.676Z,99004.47
2022-09-14T22:46:49.302Z,99003.31
2022-09-14T22:49:17.938Z,99002.66
2022-09-14T22:51:47.636Z,99005.50
2022-09-14T22:54:18.376Z,98999.63
2022-09-14T22:56:46.929Z,99006.44
2022-09-14T22:59:15.477Z,98994.56
2022-09-14T23:01:44.289Z,98997.19
2022-09-14T23:04:14.264Z,98992.56
2022-09-14T23:06:44.919Z,98991.47
2022-09-14T23:09:16.345Z,98987.09
2022-09-14T23:11:47.224Z,98994.69
2022-09-14T23:14:16.265Z,98995.09
2022-09-14T23:16:45.904Z,98988.91
2022-09-14T23:19:17.321Z,98991.13
2022-09-14T23:21:46.723Z,98989.75
2022-09-14T23:24:16.003Z,98985.81
2022-09-14T23:26:44.836Z,98990.84
2022-09-14T23:29:17.212Z,98986.78
2022-09-14T23:31:46.353Z,98982.13
2022-09-14T23:34:15.363Z,98973.13
2022-09-14T23:36:44.013Z,98977.47
2022-09-14T23:39:12.615Z,98973.75
2022-09-14T23:41:41.202Z,98976.00
2022-09-14T23:44:11.018Z,98978.31
2022-09-14T23:46:41.269Z,98970.59
2022-09-14T23:49:12.513Z,98964.81
2022-09-14T23:51:42.286Z,98957.75
2022-09-14T23:54:11.790Z,98956.78
2022-09-14T23:56:40.297Z,98954.53
2022-09-14T23:59:08.910Z,98950.88
